Free0maverick — A8GH3 — position and weather

sailwx.info

Track history (hours):
 
Tides and Currents Weather Stations Pressure Air Temp Water Temp Dewpoint Dewpoint Depression Visibility Wind Speed Wind Dir Waves Ship Positions

Free0maverick

Last reported at 2017-Nov-16 10:52 UTC. Time now 2017-Nov-19 12:34 UTC.
Position N 36°04' W 005°11'.

Length 169 m.

Type: Cargo ship. MMSI: 636013999.

Date/timePositionNaut miles runAvg speedWind from/ knotsBaromVisibWave heightAir tempDewpointWater temp
2017-Nov-16 10:52N 36°04' W 005°11'613.5
2017-Nov-16 10:27N 36°04' W 005°18'510.8
2017-Nov-16 09:59N 36°06' W 005°24'1 0.2
2017-Nov-16 06:12N 36°06' W 005°25'0 0.0
2017-Nov-16 06:00N 36°06' W 005°25'0 0.0
2017-Nov-16 05:30N 36°06' W 005°25'0 0.0
2017-Nov-16 04:57N 36°06' W 005°25'0 0.0
2017-Nov-16 02:06N 36°06' W 005°25'0 0.0
2017-Nov-16 01:36N 36°06' W 005°25'0 0.2
2017-Nov-16 01:27N 36°06' W 005°25'0 0.0
2017-Nov-16 01:00N 36°06' W 005°25'0 0.1
2017-Nov-16 00:27N 36°06' W 005°25'0 0.0
2017-Nov-16 00:00N 36°06' W 005°25'0 0.0
2017-Nov-15 23:27N 36°06' W 005°25'0 0.1
2017-Nov-15 22:54N 36°06' W 005°25'0 0.1
2017-Nov-15 22:30N 36°06' W 005°25'0 0.0
2017-Nov-15 19:54N 36°06' W 005°25'0 0.0
2017-Nov-15 19:21N 36°06' W 005°25'0 0.0
2017-Nov-15 17:21N 36°06' W 005°25'4 0.4
2017-Nov-15 08:28N 36°04' W 005°21'2 4.9
2017-Nov-15 08:01N 36°04' W 005°18'1 2.7
2017-Nov-15 07:30N 36°05' W 005°19'3 5.2
2017-Nov-15 06:58N 36°07' W 005°16'0 0.5
2017-Nov-15 06:31N 36°07' W 005°17'2 4.6
2017-Nov-15 06:01N 36°05' W 005°18'3 6.0
2017-Nov-15 05:31N 36°02' W 005°20'5 9.5
2017-Nov-15 05:00N 35°59' W 005°24'510.6
2017-Nov-15 04:31N 35°57' W 005°30'  
Track history (hours):
 
Tides and Currents Weather Stations Pressure Air Temp Water Temp Dewpoint Dewpoint Depression Visibility Wind Speed Wind Dir Waves Ship Positions

Free0maverick

Last reported at 2017-Nov-16 10:52 UTC. Time now 2017-Nov-19 12:34 UTC.
Position N 36°04' W 005°11'.

Length 169 m.

Type: Cargo ship. MMSI: 636013999.

Date/timePositionNaut miles runAvg speedWind from/ knotsBaromVisibWave heightAir tempDewpointWater temp
2017-Nov-16 10:52N 36°04' W 005°11'613.5
2017-Nov-16 10:27N 36°04' W 005°18'510.8
2017-Nov-16 09:59N 36°06' W 005°24'1 0.2
2017-Nov-16 06:12N 36°06' W 005°25'0 0.0
2017-Nov-16 06:00N 36°06' W 005°25'0 0.0
2017-Nov-16 05:30N 36°06' W 005°25'0 0.0
2017-Nov-16 04:57N 36°06' W 005°25'0 0.0
2017-Nov-16 02:06N 36°06' W 005°25'0 0.0
2017-Nov-16 01:36N 36°06' W 005°25'0 0.2
2017-Nov-16 01:27N 36°06' W 005°25'0 0.0
2017-Nov-16 01:00N 36°06' W 005°25'0 0.1
2017-Nov-16 00:27N 36°06' W 005°25'0 0.0
2017-Nov-16 00:00N 36°06' W 005°25'0 0.0
2017-Nov-15 23:27N 36°06' W 005°25'0 0.1
2017-Nov-15 22:54N 36°06' W 005°25'0 0.1
2017-Nov-15 22:30N 36°06' W 005°25'0 0.0
2017-Nov-15 19:54N 36°06' W 005°25'0 0.0
2017-Nov-15 19:21N 36°06' W 005°25'0 0.0
2017-Nov-15 17:21N 36°06' W 005°25'4 0.4
2017-Nov-15 08:28N 36°04' W 005°21'2 4.9
2017-Nov-15 08:01N 36°04' W 005°18'1 2.7
2017-Nov-15 07:30N 36°05' W 005°19'3 5.2
2017-Nov-15 06:58N 36°07' W 005°16'0 0.5
2017-Nov-15 06:31N 36°07' W 005°17'2 4.6
2017-Nov-15 06:01N 36°05' W 005°18'3 6.0
2017-Nov-15 05:31N 36°02' W 005°20'5 9.5
2017-Nov-15 05:00N 35°59' W 005°24'510.6
2017-Nov-15 04:31N 35°57' W 005°30'  

Dump ship's entire track history